Time;durP1;ratioP1;P1;durP2;ratioP2;P2;SDS_P1;SDS_P2;PMS_P1;PMS_P2;Temp;Humidity;BMP_temperature;BMP_pressure;BME280_temperature;BME280_humidity;BME280_pressure;Samples;Min_cycle;Max_cycle;Signal;HPM_P1;HPM_P2
2023/02/25 00:01:18;;;;;;;29.83;18.05;;;-1.60;99.90;;;;;;5050119;28;20029;-80
2023/02/25 00:03:44;;;;;;;34.42;19.38;;;-1.60;99.90;;;;;;5038113;28;20429;-81
2023/02/25 00:06:13;;;;;;;30.70;16.38;;;-1.60;99.90;;;;;;5053125;28;20112;-81
2023/02/25 00:08:46;;;;;;;29.65;16.65;;;-1.60;99.90;;;;;;5034885;28;20097;-83
2023/02/25 00:11:13;;;;;;;29.48;16.42;;;-1.60;99.90;;;;;;5052587;28;20434;-81
2023/02/25 00:13:40;;;;;;;;;;;-1.60;99.90;;;;;;5051737;28;20084;-79
2023/02/25 00:16:06;;;;;;;25.60;15.75;;;-1.60;99.90;;;;;;5053059;28;19909;-80
2023/02/25 00:18:33;;;;;;;30.05;16.40;;;-1.60;99.90;;;;;;5055069;28;20040;-79
2023/02/25 00:21:04;;;;;;;27.30;15.65;;;-1.60;99.90;;;;;;5051147;28;20052;-80
2023/02/25 00:23:30;;;;;;;24.73;16.02;;;-1.60;99.90;;;;;;5052620;28;20035;-80
2023/02/25 00:26:00;;;;;;;33.08;18.27;;;-1.60;99.90;;;;;;5052882;28;20469;-80
2023/02/25 00:28:26;;;;;;;30.05;18.17;;;-1.60;99.90;;;;;;5052214;28;20052;-79
2023/02/25 00:30:52;;;;;;;29.90;16.73;;;-1.60;99.90;;;;;;5048565;28;20025;-79
2023/02/25 00:33:18;;;;;;;31.67;16.98;;;-1.60;99.90;;;;;;5053051;28;20304;-79
2023/02/25 00:35:44;;;;;;;29.02;14.63;;;-1.50;99.90;;;;;;5053511;28;20056;-79
2023/02/25 00:38:10;;;;;;;25.67;17.23;;;-1.50;99.90;;;;;;5055161;28;20035;-79
2023/02/25 00:40:40;;;;;;;32.30;16.65;;;-1.50;99.90;;;;;;5051239;28;20050;-80
2023/02/25 00:43:06;;;;;;;29.35;15.95;;;-1.50;99.90;;;;;;5052032;28;20029;-78
2023/02/25 00:45:33;;;;;;;28.65;16.88;;;-1.50;99.90;;;;;;5052267;28;20017;-79
2023/02/25 00:47:59;;;;;;;28.27;17.88;;;-1.50;99.90;;;;;;5052085;28;20068;-79
2023/02/25 00:50:25;;;;;;;31.98;18.05;;;-1.50;99.90;;;;;;5052581;28;20017;-79
2023/02/25 00:52:51;;;;;;;29.23;17.65;;;-1.50;99.90;;;;;;5053979;28;20033;-78
2023/02/25 00:55:17;;;;;;;27.83;16.52;;;-1.50;99.90;;;;;;5056811;28;20638;-78
2023/02/25 00:57:43;;;;;;;34.85;19.10;;;-1.50;99.90;;;;;;5050695;28;20029;-78
2023/02/25 01:00:15;;;;;;;30.90;18.10;;;-1.50;99.90;;;;;;5036193;28;20120;-79
2023/02/25 01:02:44;;;;;;;26.27;15.93;;;-1.40;99.90;;;;;;5037753;28;20374;-79
2023/02/25 01:05:14;;;;;;;30.52;17.80;;;-1.40;99.90;;;;;;5033750;28;20025;-80
2023/02/25 01:07:40;;;;;;;26.92;16.60;;;-1.40;99.90;;;;;;5051454;28;20021;-79
2023/02/25 01:10:06;;;;;;;27.77;16.45;;;-1.40;99.90;;;;;;5051745;28;20100;-80
2023/02/25 01:12:32;;;;;;;25.80;16.63;;;-1.40;99.90;;;;;;5054199;28;20057;-79
2023/02/25 01:14:58;;;;;;;29.23;16.77;;;-1.40;99.90;;;;;;5031126;28;20018;-78
2023/02/25 01:17:24;;;;;;;28.88;17.17;;;-1.30;99.90;;;;;;5049884;28;20036;-79
2023/02/25 01:19:50;;;;;;;29.52;18.02;;;-1.30;99.90;;;;;;5053898;28;20029;-77
2023/02/25 01:22:16;;;;;;;27.05;16.65;;;-1.30;99.90;;;;;;5055543;28;20105;-80
2023/02/25 01:24:42;;;;;;;31.33;18.80;;;-1.30;99.90;;;;;;5053327;28;20027;-80
2023/02/25 01:27:08;;;;;;;29.83;17.80;;;-1.30;99.90;;;;;;5037741;28;20083;-80
2023/02/25 01:29:39;;;;;;;27.65;17.17;;;-1.30;99.90;;;;;;5038627;28;20021;-80
2023/02/25 01:32:07;;;;;;;37.50;16.33;;;-1.30;99.90;;;;;;5054951;28;20474;-79
2023/02/25 01:34:33;;;;;;;26.20;17.23;;;-1.20;99.90;;;;;;5056298;28;20470;-80
2023/02/25 01:36:59;;;;;;;25.70;15.90;;;-1.20;99.90;;;;;;5055436;28;20063;-80
2023/02/25 01:39:27;;;;;;;24.02;14.73;;;-1.10;99.90;;;;;;5053333;28;20394;-79
2023/02/25 01:41:54;;;;;;;;;;;-1.20;99.90;;;;;;5044476;28;20017;-78
2023/02/25 01:44:33;;;;;;;25.85;15.95;;;-1.20;99.90;;;;;;5052695;28;19999;-80
2023/02/25 01:47:03;;;;;;;26.00;14.27;;;-1.20;99.90;;;;;;5055720;28;20024;-80
2023/02/25 01:49:34;;;;;;;26.20;17.33;;;-1.20;99.90;;;;;;5055536;28;20021;-78
2023/02/25 01:52:19;;;;;;;31.42;16.35;;;-1.30;99.90;;;;;;5057840;28;20536;-82
2023/02/25 01:54:49;;;;;;;29.95;17.75;;;-1.20;99.90;;;;;;5062960;28;20013;-80
2023/02/25 01:57:17;;;;;;;27.02;17.60;;;-1.20;99.90;;;;;;5060996;28;20021;-79
2023/02/25 01:59:43;;;;;;;;;;;-1.20;99.90;;;;;;5042981;28;20021;-77
2023/02/25 02:02:12;;;;;;;29.88;16.58;;;-1.20;99.90;;;;;;5028207;28;19905;-77
2023/02/25 02:04:40;;;;;;;27.50;16.75;;;-1.20;99.90;;;;;;5052507;28;20110;-78
2023/02/25 02:07:06;;;;;;;23.35;16.75;;;-1.20;99.90;;;;;;5055526;28;20040;-80
2023/02/25 02:09:32;;;;;;;27.10;15.32;;;-1.10;99.90;;;;;;5054490;28;20028;-79
2023/02/25 02:12:01;;;;;;;24.55;17.35;;;-1.10;99.90;;;;;;5036533;28;20083;-79
2023/02/25 02:14:31;;;;;;;25.90;17.40;;;-1.10;99.90;;;;;;5051461;28;20052;-79
2023/02/25 02:16:57;;;;;;;26.10;16.83;;;;;;;;;;5057389;28;20013;-79
2023/02/25 02:19:37;;;;;;;25.73;16.88;;;-1.10;99.90;;;;;;5056579;28;20027;-80
2023/02/25 02:22:32;;;;;;;23.70;15.35;;;-1.10;99.90;;;;;;5042694;28;20021;-79
2023/02/25 02:25:19;;;;;;;31.10;17.17;;;-1.10;99.90;;;;;;5057841;28;20061;-79
2023/02/25 02:27:54;;;;;;;27.30;16.92;;;-1.10;99.90;;;;;;5056190;28;20386;-78
2023/02/25 02:30:35;;;;;;;27.77;14.35;;;-1.00;99.90;;;;;;5054579;28;20029;-80
2023/02/25 02:33:22;;;;;;;26.00;15.35;;;-1.10;99.90;;;;;;5042341;28;20124;-79
2023/02/25 02:36:07;;;;;;;29.40;19.23;;;-1.00;99.90;;;;;;5035923;28;20103;-78
2023/02/25 02:38:56;;;;;;;26.30;17.33;;;-1.00;99.90;;;;;;5053865;28;20029;-80
2023/02/25 02:41:46;;;;;;;27.80;16.27;;;-1.00;99.90;;;;;;5054373;28;20039;-79
2023/02/25 02:44:15;;;;;;;25.50;16.88;;;-1.00;99.90;;;;;;5059622;28;20024;-78
2023/02/25 02:46:57;;;;;;;26.15;15.45;;;-1.00;99.90;;;;;;5054425;28;20028;-78
2023/02/25 02:49:26;;;;;;;28.52;16.50;;;-0.90;99.90;;;;;;5053450;28;20452;-79
2023/02/25 02:52:00;;;;;;;27.05;15.73;;;-0.90;99.90;;;;;;5053991;28;20025;-79
2023/02/25 02:54:31;;;;;;;27.35;16.70;;;-0.90;99.90;;;;;;5053867;28;20025;-80
2023/02/25 02:56:59;;;;;;;23.00;14.43;;;-0.90;99.90;;;;;;5053814;28;20032;-81
2023/02/25 02:59:32;;;;;;;23.15;14.65;;;-0.90;99.90;;;;;;5053530;28;20029;-78
2023/02/25 03:02:07;;;;;;;24.33;16.38;;;-0.90;99.90;;;;;;5053345;28;20055;-80
2023/02/25 03:04:36;;;;;;;28.83;15.70;;;-0.90;99.90;;;;;;5049282;28;20024;-79
2023/02/25 03:07:06;;;;;;;23.35;15.75;;;-0.90;99.90;;;;;;5053376;28;20067;-78
2023/02/25 03:09:38;;;;;;;23.35;16.63;;;-0.90;99.90;;;;;;5035238;28;20024;-79
2023/02/25 03:12:05;;;;;;;26.15;15.38;;;-0.90;99.90;;;;;;5052918;28;20045;-79
2023/02/25 03:14:31;;;;;;;25.23;15.07;;;-0.90;99.90;;;;;;5051820;28;20785;-79
2023/02/25 03:17:05;;;;;;;22.27;14.57;;;-0.90;99.90;;;;;;5054228;28;20041;-79
2023/02/25 03:19:37;;;;;;;22.88;14.82;;;-0.90;99.90;;;;;;5053934;28;20064;-79
2023/02/25 03:22:09;;;;;;;24.58;14.85;;;-0.80;99.90;;;;;;5053027;28;20097;-79
2023/02/25 03:24:42;;;;;;;23.42;13.35;;;-0.80;99.90;;;;;;5052796;28;20085;-79
2023/02/25 03:27:52;;;;;;;26.05;16.25;;;-0.80;99.90;;;;;;5042720;28;20025;-79
2023/02/25 03:30:28;;;;;;;24.02;13.80;;;-0.80;99.90;;;;;;5051201;28;20102;-80
2023/02/25 03:33:08;;;;;;;27.70;16.38;;;-0.70;99.90;;;;;;5043976;28;20033;-80
2023/02/25 03:35:35;;;;;;;29.17;15.70;;;-0.70;99.90;;;;;;5051139;28;20025;-79
2023/02/25 03:38:03;;;;;;;;;;;-0.70;99.90;;;;;;5054660;28;20025;-80
2023/02/25 03:40:30;;;;;;;29.40;15.85;;;-0.70;99.90;;;;;;5050355;28;19905;-79
2023/02/25 03:43:08;;;;;;;22.25;14.65;;;-0.70;99.90;;;;;;5051871;28;20025;-80
2023/02/25 03:45:36;;;;;;;20.85;13.35;;;-0.70;99.90;;;;;;5052844;28;20500;-79
2023/02/25 03:48:06;;;;;;;25.15;14.98;;;-0.60;99.90;;;;;;5053095;28;20025;-79
2023/02/25 03:50:43;;;;;;;25.58;13.30;;;-0.60;99.90;;;;;;5035218;28;20385;-78
2023/02/25 03:53:10;;;;;;;23.00;14.80;;;-0.60;99.90;;;;;;5051501;28;20037;-79
2023/02/25 03:55:36;;;;;;;19.50;13.73;;;-0.60;99.90;;;;;;5055040;28;20025;-79
2023/02/25 03:58:02;;;;;;;23.10;14.43;;;-0.50;99.90;;;;;;5044204;28;20052;-81
2023/02/25 04:00:31;;;;;;;26.60;14.30;;;-0.50;99.90;;;;;;5058526;28;20029;-80
2023/02/25 04:02:57;;;;;;;24.33;13.88;;;-0.50;99.90;;;;;;5041014;28;20025;-78
2023/02/25 04:05:27;;;;;;;25.00;14.88;;;-0.50;99.90;;;;;;5052710;28;20021;-80
2023/02/25 04:07:55;;;;;;;22.83;13.07;;;-0.40;99.90;;;;;;5056435;28;20021;-79
2023/02/25 04:10:21;;;;;;;22.52;14.90;;;-0.40;99.90;;;;;;5059876;28;20024;-78
2023/02/25 04:12:49;;;;;;;22.13;12.82;;;-0.40;99.90;;;;;;5056317;28;20057;-79
2023/02/25 04:15:15;;;;;;;24.55;13.00;;;-0.40;99.90;;;;;;5057131;28;20017;-79
2023/02/25 04:17:45;;;;;;;18.70;13.15;;;-0.30;99.90;;;;;;5056323;28;20041;-80
2023/02/25 04:20:13;;;;;;;22.83;11.73;;;-0.30;99.90;;;;;;5054968;28;20024;-81
2023/02/25 04:22:39;;;;;;;20.73;13.82;;;-0.30;99.90;;;;;;5054497;28;20013;-79
2023/02/25 04:25:05;;;;;;;19.50;13.52;;;-0.40;99.90;;;;;;5045078;28;20067;-79
2023/02/25 04:27:31;;;;;;;26.35;14.80;;;-0.40;99.90;;;;;;5040657;28;20039;-78
2023/02/25 04:29:57;;;;;;;23.35;12.25;;;-0.30;99.90;;;;;;5066351;28;20025;-79
2023/02/25 04:32:24;;;;;;;21.52;12.35;;;-0.30;99.90;;;;;;5051055;28;20470;-79
2023/02/25 04:34:50;;;;;;;21.05;13.55;;;-0.30;99.90;;;;;;5026236;28;20111;-79
2023/02/25 04:37:16;;;;;;;22.33;12.02;;;-0.30;99.90;;;;;;5034478;28;20500;-79
2023/02/25 04:39:42;;;;;;;24.48;14.45;;;-0.30;99.90;;;;;;5052450;28;20562;-80
2023/02/25 04:42:08;;;;;;;20.70;14.32;;;-0.30;99.90;;;;;;5022747;28;20213;-81
2023/02/25 04:44:34;;;;;;;18.95;12.52;;;-0.20;99.90;;;;;;5052794;28;20018;-78
2023/02/25 04:47:00;;;;;;;23.23;14.25;;;-0.30;99.90;;;;;;5026141;28;20029;-79
2023/02/25 04:49:26;;;;;;;29.02;15.07;;;-0.30;99.90;;;;;;5069069;28;20024;-78
2023/02/25 04:51:52;;;;;;;20.23;13.23;;;-0.20;99.90;;;;;;5052365;28;20033;-77
2023/02/25 04:54:19;;;;;;;25.45;14.70;;;-0.20;99.90;;;;;;5051650;28;20482;-79
2023/02/25 04:56:45;;;;;;;20.65;13.75;;;-0.20;99.90;;;;;;5051728;28;20424;-78
2023/02/25 04:59:12;;;;;;;22.25;14.35;;;0.00;99.90;;;;;;5051657;28;20085;-78
2023/02/25 05:01:39;;;;;;;21.23;14.70;;;0.10;99.90;;;;;;5051732;28;20032;-80
2023/02/25 05:04:05;;;;;;;26.48;14.40;;;;;;;;;;5049208;28;20028;-80
2023/02/25 05:06:31;;;;;;;23.20;13.82;;;-0.10;99.90;;;;;;5051468;28;20363;-79
2023/02/25 05:08:57;;;;;;;24.13;14.93;;;-0.20;99.90;;;;;;5051434;28;20032;-80
2023/02/25 05:11:26;;;;;;;20.23;13.98;;;-0.10;99.90;;;;;;5051222;28;20386;-80
2023/02/25 05:13:54;;;;;;;22.50;14.55;;;-0.10;99.90;;;;;;5051546;28;20053;-80
2023/02/25 05:16:20;;;;;;;21.92;14.52;;;-0.10;99.90;;;;;;5043968;28;20092;-79
2023/02/25 05:18:47;;;;;;;23.10;13.45;;;-0.10;99.90;;;;;;5051374;28;20359;-80
2023/02/25 05:21:19;;;;;;;20.25;13.23;;;-0.10;99.90;;;;;;5051758;28;20028;-79
2023/02/25 05:23:46;;;;;;;27.23;13.85;;;0.00;99.90;;;;;;5049888;28;20024;-79
2023/02/25 05:26:14;;;;;;;18.25;12.07;;;0.00;99.90;;;;;;5051369;28;20055;-80
2023/02/25 05:28:42;;;;;;;22.85;14.00;;;0.00;99.90;;;;;;5033203;28;20024;-80
2023/02/25 05:31:10;;;;;;;21.42;13.65;;;0.00;99.90;;;;;;5051444;28;20390;-80
2023/02/25 05:33:38;;;;;;;27.20;14.43;;;0.00;99.90;;;;;;5037337;28;20041;-80
2023/02/25 05:36:08;;;;;;;22.88;13.77;;;0.00;99.90;;;;;;5051516;28;20017;-80
2023/02/25 05:38:35;;;;;;;24.00;13.73;;;0.10;99.90;;;;;;5050823;28;20127;-80
2023/02/25 05:41:02;;;;;;;18.75;12.80;;;0.10;99.90;;;;;;5049863;28;20238;-79
2023/02/25 05:43:28;;;;;;;21.60;12.68;;;0.00;99.90;;;;;;5051160;28;20067;-80
2023/02/25 05:45:56;;;;;;;20.85;13.50;;;0.10;99.90;;;;;;5051477;28;20053;-80
2023/02/25 05:48:22;;;;;;;24.23;13.88;;;0.10;99.90;;;;;;5048877;28;20084;-80
2023/02/25 05:51:03;;;;;;;19.85;12.30;;;0.10;99.90;;;;;;5051924;28;20023;-80
2023/02/25 05:53:29;;;;;;;19.00;11.35;;;0.10;99.90;;;;;;5052006;28;20493;-80
2023/02/25 05:55:55;;;;;;;18.30;12.73;;;0.10;99.90;;;;;;5049187;28;20013;-81
2023/02/25 05:58:21;;;;;;;29.20;12.60;;;0.10;99.90;;;;;;5052718;28;20508;-80
2023/02/25 06:00:47;;;;;;;18.47;12.57;;;0.10;99.90;;;;;;5054852;28;20021;-81
2023/02/25 06:03:14;;;;;;;20.75;13.30;;;0.20;99.90;;;;;;5055141;28;20032;-80
2023/02/25 06:05:40;;;;;;;21.75;13.52;;;0.20;99.90;;;;;;5054690;28;20036;-80
2023/02/25 06:08:07;;;;;;;18.80;13.23;;;0.20;99.90;;;;;;5053794;28;20425;-81
2023/02/25 06:10:37;;;;;;;19.70;12.57;;;0.20;99.90;;;;;;5055045;28;20272;-81
2023/02/25 06:13:07;;;;;;;17.98;12.27;;;0.30;99.90;;;;;;5036699;28;20048;-80
2023/02/25 06:15:39;;;;;;;19.67;12.35;;;0.30;99.90;;;;;;5055166;28;20024;-81
2023/02/25 06:18:05;;;;;;;17.00;11.32;;;0.30;99.90;;;;;;5056682;28;20021;-80
2023/02/25 06:20:32;;;;;;;20.63;12.40;;;0.30;99.90;;;;;;5057175;28;20053;-79
2023/02/25 06:22:58;;;;;;;16.92;12.05;;;0.30;99.90;;;;;;5041072;28;20025;-80
2023/02/25 06:25:28;;;;;;;17.45;12.73;;;0.30;99.90;;;;;;5055151;28;20450;-80
2023/02/25 06:27:56;;;;;;;15.45;11.35;;;0.30;99.90;;;;;;5066627;28;20113;-81
2023/02/25 06:30:22;;;;;;;17.98;11.25;;;0.30;99.90;;;;;;5055734;28;20029;-80
2023/02/25 06:32:47;;;;;;;17.85;11.38;;;0.30;99.90;;;;;;5059359;28;20033;-80
2023/02/25 06:35:13;;;;;;;19.40;13.10;;;0.30;99.90;;;;;;5057525;28;20095;-80
2023/02/25 06:37:39;;;;;;;19.42;11.77;;;0.40;99.90;;;;;;5058679;28;20021;-80
2023/02/25 06:40:06;;;;;;;17.67;11.23;;;0.40;99.90;;;;;;5055922;28;20119;-79
2023/02/25 06:42:32;;;;;;;14.88;11.45;;;0.40;99.90;;;;;;5053836;28;20020;-82
2023/02/25 06:44:58;;;;;;;19.45;10.90;;;0.40;99.90;;;;;;5064839;28;20083;-82
2023/02/25 06:47:24;;;;;;;17.48;11.38;;;0.40;99.90;;;;;;5068005;28;20021;-81
2023/02/25 06:49:50;;;;;;;20.25;10.68;;;0.40;99.90;;;;;;5065387;28;20055;-81
2023/02/25 06:52:16;;;;;;;18.58;12.10;;;0.40;99.90;;;;;;5058925;28;20603;-81
2023/02/25 06:54:42;;;;;;;18.35;11.95;;;0.40;99.90;;;;;;5056517;28;20025;-82
2023/02/25 06:57:08;;;;;;;14.80;11.65;;;0.40;99.90;;;;;;5037847;28;20055;-82
2023/02/25 06:59:34;;;;;;;17.67;10.25;;;0.40;99.90;;;;;;5047375;28;20035;-82
2023/02/25 07:02:00;;;;;;;13.85;10.05;;;0.50;99.90;;;;;;5073508;28;20051;-81
2023/02/25 07:04:26;;;;;;;17.52;9.48;;;0.50;99.90;;;;;;5035446;28;20039;-80
2023/02/25 07:06:52;;;;;;;18.20;10.95;;;0.40;99.90;;;;;;5066440;28;20028;-81
2023/02/25 07:09:18;;;;;;;15.63;12.23;;;0.50;99.90;;;;;;5055593;28;20508;-81
2023/02/25 07:11:44;;;;;;;16.02;11.05;;;0.50;99.90;;;;;;5055260;28;20170;-80
2023/02/25 07:14:13;;;;;;;15.05;10.77;;;0.50;99.90;;;;;;5036020;28;20032;-81
2023/02/25 07:16:38;;;;;;;18.75;11.38;;;0.50;99.90;;;;;;5048359;28;20060;-79
2023/02/25 07:19:04;;;;;;;17.77;11.35;;;0.50;99.90;;;;;;5050565;28;20093;-81
2023/02/25 07:21:30;;;;;;;17.65;11.07;;;0.60;99.90;;;;;;5053947;28;20044;-80
2023/02/25 07:23:57;;;;;;;13.57;9.90;;;0.50;99.90;;;;;;5054482;28;20040;-80
2023/02/25 07:26:27;;;;;;;16.73;9.90;;;0.60;99.90;;;;;;5054182;28;20484;-79
2023/02/25 07:28:54;;;;;;;13.55;8.63;;;0.50;99.90;;;;;;5054312;28;20017;-82
2023/02/25 07:31:20;;;;;;;;;;;0.60;99.90;;;;;;5037114;28;20017;-83
2023/02/25 07:33:47;;;;;;;17.85;10.75;;;0.60;99.90;;;;;;5042331;28;20015;-81
2023/02/25 07:36:14;;;;;;;14.90;10.88;;;0.60;99.90;;;;;;5054147;28;20028;-81
2023/02/25 07:38:40;;;;;;;16.95;10.15;;;0.60;99.90;;;;;;5036179;28;20025;-82
2023/02/25 07:41:08;;;;;;;16.17;9.23;;;0.60;99.90;;;;;;5053686;28;20100;-83
2023/02/25 07:43:33;;;;;;;;;;;0.60;99.90;;;;;;5056724;28;20374;-82
2023/02/25 07:45:59;;;;;;;13.38;10.38;;;0.60;99.90;;;;;;5056551;28;19905;-83
2023/02/25 07:48:26;;;;;;;15.05;7.95;;;0.60;99.90;;;;;;5057015;28;20021;-83
2023/02/25 07:50:51;;;;;;;14.20;9.63;;;0.60;99.90;;;;;;5052644;28;20112;-82
2023/02/25 07:53:20;;;;;;;13.55;10.18;;;0.60;99.90;;;;;;5054204;28;20458;-84
2023/02/25 07:55:47;;;;;;;17.55;10.48;;;0.60;99.90;;;;;;5053534;28;20013;-82
2023/02/25 07:58:13;;;;;;;15.00;9.68;;;0.70;99.90;;;;;;5038276;28;20517;-82
2023/02/25 08:00:40;;;;;;;16.73;11.27;;;0.70;99.90;;;;;;5056423;28;20017;-81
2023/02/25 08:03:07;;;;;;;16.05;9.82;;;0.80;99.90;;;;;;5056498;28;20381;-81
2023/02/25 08:05:34;;;;;;;18.00;11.02;;;;;;;;;;5052935;28;20072;-81
2023/02/25 08:07:59;;;;;;;15.93;10.45;;;0.80;99.90;;;;;;5057979;28;20027;-79
2023/02/25 08:10:25;;;;;;;11.43;8.13;;;0.80;99.90;;;;;;5055798;28;20470;-84
2023/02/25 08:12:51;;;;;;;17.63;9.30;;;0.80;99.90;;;;;;5055882;28;20088;-82
2023/02/25 08:15:17;;;;;;;17.92;9.23;;;0.80;99.90;;;;;;5037514;28;20036;-80
2023/02/25 08:17:43;;;;;;;14.55;9.63;;;0.80;99.90;;;;;;5032094;28;20025;-80
2023/02/25 08:20:10;;;;;;;14.52;8.43;;;0.90;99.90;;;;;;5038547;28;20048;-82
2023/02/25 08:22:36;;;;;;;13.75;10.15;;;0.90;99.90;;;;;;5039723;28;20025;-81
2023/02/25 08:25:03;;;;;;;13.80;8.77;;;0.90;99.90;;;;;;5046159;28;20071;-83
2023/02/25 08:27:29;;;;;;;13.25;7.60;;;1.00;99.90;;;;;;5052048;28;20024;-81
2023/02/25 08:29:56;;;;;;;16.55;8.38;;;0.90;99.90;;;;;;5037831;28;20028;-82
2023/02/25 08:32:24;;;;;;;14.18;9.93;;;1.00;99.90;;;;;;5051913;28;20094;-80
2023/02/25 08:34:53;;;;;;;12.38;8.82;;;1.00;99.90;;;;;;5055412;28;20025;-81
2023/02/25 08:37:20;;;;;;;11.57;8.40;;;1.00;99.90;;;;;;5036749;28;20020;-79
2023/02/25 08:39:46;;;;;;;14.73;9.48;;;1.00;99.90;;;;;;5057942;28;20032;-81
2023/02/25 08:42:15;;;;;;;11.02;9.10;;;1.00;99.90;;;;;;5040627;28;20093;-79
2023/02/25 08:44:41;;;;;;;13.35;9.77;;;1.00;99.90;;;;;;5043131;28;20070;-80
2023/02/25 08:47:06;;;;;;;15.48;10.02;;;1.10;99.90;;;;;;5059922;28;20033;-81
2023/02/25 08:49:32;;;;;;;15.77;8.52;;;1.10;99.90;;;;;;5040322;28;20024;-80
2023/02/25 08:52:02;;;;;;;12.27;7.95;;;1.20;99.90;;;;;;5035977;28;20044;-81
2023/02/25 08:54:27;;;;;;;14.88;9.80;;;1.20;99.90;;;;;;5042631;28;20052;-80
2023/02/25 08:56:54;;;;;;;13.88;9.25;;;1.30;99.90;;;;;;5048900;28;20017;-80
2023/02/25 08:59:20;;;;;;;15.70;8.13;;;1.30;99.90;;;;;;5041280;28;20079;-79
2023/02/25 09:01:47;;;;;;;12.98;9.15;;;1.30;99.90;;;;;;5040198;28;20474;-80
2023/02/25 09:04:19;;;;;;;15.10;8.00;;;1.40;99.90;;;;;;5041693;28;20101;-80
2023/02/25 09:06:48;;;;;;;11.63;9.77;;;1.40;99.90;;;;;;5042432;28;20026;-80
2023/02/25 09:09:18;;;;;;;11.77;8.88;;;1.50;99.90;;;;;;5031913;28;20402;-82
2023/02/25 09:11:46;;;;;;;13.80;8.27;;;1.70;99.90;;;;;;5046095;28;20057;-80
2023/02/25 09:14:16;;;;;;;10.38;7.63;;;1.70;99.90;;;;;;5045072;28;20033;-80
2023/02/25 09:16:42;;;;;;;11.70;8.65;;;1.80;99.90;;;;;;5058264;28;20017;-80
2023/02/25 09:19:09;;;;;;;15.48;8.25;;;1.80;99.90;;;;;;5041245;28;20029;-81
2023/02/25 09:21:49;;;;;;;9.75;7.07;;;1.90;99.90;;;;;;5043808;28;20476;-83
2023/02/25 09:24:16;;;;;;;15.43;7.95;;;1.90;99.90;;;;;;5017555;28;20068;-81
2023/02/25 09:26:42;;;;;;;10.45;7.65;;;1.90;99.90;;;;;;5012243;28;20074;-81
2023/02/25 09:29:08;;;;;;;10.45;8.38;;;1.90;99.90;;;;;;5006648;28;20145;-83
2023/02/25 09:31:35;;;;;;;9.50;7.97;;;;;;;;;;5000347;28;20084;-84
2023/02/25 09:34:03;;;;;;;10.38;7.05;;;2.10;99.90;;;;;;5021991;28;20033;-82
2023/02/25 09:36:34;;;;;;;11.40;6.82;;;2.20;99.90;;;;;;5017940;28;20505;-82
2023/02/25 09:39:08;;;;;;;11.73;7.75;;;2.20;99.90;;;;;;5014385;28;20040;-83
2023/02/25 09:41:43;;;;;;;8.68;6.70;;;2.20;99.90;;;;;;4994497;28;20100;-81
2023/02/25 09:44:13;;;;;;;14.50;7.70;;;2.30;99.90;;;;;;5014504;28;20038;-82
2023/02/25 09:46:56;;;;;;;11.60;6.07;;;2.40;99.90;;;;;;5009316;28;20122;-82
2023/02/25 09:49:39;;;;;;;9.70;7.25;;;2.50;99.90;;;;;;4996978;28;20522;-84
2023/02/25 09:52:27;;;;;;;9.50;6.05;;;2.50;99.90;;;;;;5007318;28;20049;-83
2023/02/25 09:55:05;;;;;;;7.47;4.63;;;2.50;99.90;;;;;;5018159;28;20096;-84
2023/02/25 09:57:37;;;;;;;6.85;5.38;;;2.40;99.90;;;;;;5060778;28;20021;-82
2023/02/25 10:00:08;;;;;;;9.23;5.63;;;2.30;99.90;;;;;;5060446;28;20021;-80
2023/02/25 10:02:46;;;;;;;12.13;6.80;;;2.30;99.90;;;;;;5054890;28;20017;-81
2023/02/25 10:05:13;;;;;;;16.23;6.93;;;2.30;99.90;;;;;;5042885;28;20080;-82
2023/02/25 10:08:20;;;;;;;11.70;6.83;;;2.40;99.90;;;;;;5059315;28;20012;-81
2023/02/25 10:11:29;;;;;;;11.40;6.15;;;2.60;99.90;;;;;;5036344;28;20044;-82
2023/02/25 10:14:16;;;;;;;9.52;6.80;;;2.80;99.90;;;;;;5057726;28;20091;-82
2023/02/25 10:16:57;;;;;;;12.15;6.03;;;2.90;99.90;;;;;;5056022;28;20017;-80
2023/02/25 10:19:48;;;;;;;8.80;6.07;;;3.00;99.90;;;;;;5054622;28;20021;-82
2023/02/25 10:22:20;;;;;;;9.95;7.03;;;3.00;99.90;;;;;;5041677;28;20021;-83
2023/02/25 10:24:58;;;;;;;9.07;5.63;;;3.10;99.90;;;;;;5041946;28;20120;-82
2023/02/25 10:27:32;;;;;;;9.45;6.63;;;3.20;99.90;;;;;;5059427;28;20074;-83
2023/02/25 10:30:15;;;;;;;13.88;7.03;;;3.30;99.90;;;;;;5057836;28;20028;-82
2023/02/25 10:32:43;;;;;;;8.18;5.88;;;3.30;99.90;;;;;;5012838;28;20217;-83
2023/02/25 10:35:24;;;;;;;11.45;7.47;;;3.30;99.90;;;;;;5035345;28;20418;-83
2023/02/25 10:38:00;;;;;;;8.88;5.85;;;3.30;99.90;;;;;;5043181;28;20029;-82
2023/02/25 10:40:28;;;;;;;11.55;8.07;;;3.20;99.90;;;;;;5048604;28;20025;-83
2023/02/25 10:42:58;;;;;;;13.75;9.07;;;3.20;99.90;;;;;;5061483;28;20021;-82
2023/02/25 10:45:27;;;;;;;13.57;8.30;;;3.20;99.90;;;;;;5038193;28;20028;-85
2023/02/25 10:48:19;;;;;;;14.15;7.30;;;3.20;99.90;;;;;;5060301;28;20021;-84
2023/02/25 10:51:04;;;;;;;12.82;7.93;;;3.20;99.90;;;;;;5059487;28;20025;-80
2023/02/25 10:53:31;;;;;;;12.25;8.13;;;3.30;99.90;;;;;;5000249;28;20083;-86
2023/02/25 10:55:59;;;;;;;10.77;6.05;;;3.30;99.90;;;;;;5001387;28;20121;-84
2023/02/25 10:58:33;;;;;;;9.75;7.65;;;3.30;99.90;;;;;;5002493;28;20030;-84
2023/02/25 11:01:13;;;;;;;10.07;6.50;;;3.30;99.90;;;;;;5004426;28;20392;-87
2023/02/25 11:03:52;;;;;;;10.82;6.65;;;3.40;99.90;;;;;;5005998;28;20555;-87
2023/02/25 11:06:23;;;;;;;12.88;6.53;;;3.30;99.90;;;;;;4975092;28;20034;-89
2023/02/25 11:08:53;;;;;;;9.07;5.63;;;3.30;99.90;;;;;;4990455;28;20026;-89
2023/02/25 11:11:22;;;;;;;10.50;7.57;;;3.40;99.90;;;;;;4988306;28;20085;-88
2023/02/25 11:14:14;;;;;;;11.25;6.25;;;3.40;99.90;;;;;;4982549;28;20042;-86
2023/02/25 11:16:42;;;;;;;9.73;5.65;;;3.30;99.90;;;;;;4991655;28;20019;-85
2023/02/25 11:19:21;;;;;;;8.65;5.60;;;3.20;99.90;;;;;;5025187;28;20115;-87
2023/02/25 11:21:50;;;;;;;12.85;6.25;;;3.20;99.90;;;;;;4980838;28;20085;-88
2023/02/25 11:24:32;;;;;;;11.15;5.80;;;3.10;99.90;;;;;;5028946;28;20057;-85
2023/02/25 11:27:01;;;;;;;9.57;6.45;;;3.10;99.90;;;;;;5030270;28;20021;-90
2023/02/25 11:29:37;;;;;;;7.13;5.57;;;3.10;99.90;;;;;;5007933;28;20103;-84
2023/02/25 11:32:18;;;;;;;7.72;5.45;;;3.10;99.90;;;;;;5047516;28;20030;-83
2023/02/25 11:34:54;;;;;;;10.23;7.25;;;3.10;99.90;;;;;;5038985;28;20022;-84
2023/02/25 11:37:39;;;;;;;7.50;5.95;;;3.00;99.90;;;;;;5021398;28;20025;-82
2023/02/25 11:40:20;;;;;;;13.50;6.20;;;;;;;;;;5037838;28;20029;-83
2023/02/25 11:43:04;;;;;;;19.05;7.80;;;3.10;99.90;;;;;;5026619;28;20017;-84
2023/02/25 11:45:33;;;;;;;9.32;5.50;;;3.10;99.90;;;;;;5036571;28;20041;-83
2023/02/25 11:48:01;;;;;;;10.35;4.88;;;3.10;99.90;;;;;;5037888;28;20018;-83
2023/02/25 11:51:09;;;;;;;7.90;4.47;;;3.00;99.90;;;;;;5024969;28;20021;-84
2023/02/25 11:53:56;;;;;;;7.90;5.30;;;3.00;99.90;;;;;;5011534;28;20064;-84
2023/02/25 11:56:49;;;;;;;9.45;5.70;;;3.10;99.90;;;;;;5024945;28;20083;-85
2023/02/25 11:59:56;;;;;;;13.32;7.20;;;3.10;99.90;;;;;;5021903;28;20088;-82
2023/02/25 12:02:47;;;;;;;7.25;5.22;;;3.20;99.90;;;;;;5004238;28;20101;-83
2023/02/25 12:05:13;;;;;;;9.85;6.80;;;3.30;99.90;;;;;;5030110;28;20021;-85
2023/02/25 12:08:12;;;;;;;9.32;5.72;;;3.30;99.90;;;;;;5060211;28;20032;-85
2023/02/25 12:11:11;;;;;;;8.02;5.78;;;3.30;99.90;;;;;;5020025;28;20034;-82
2023/02/25 12:13:49;;;;;;;6.65;5.55;;;3.30;99.90;;;;;;5031119;28;20061;-83
2023/02/25 12:16:33;;;;;;;;;;;3.30;99.90;;;;;;5020908;28;20021;-82
2023/02/25 12:19:11;;;;;;;5.40;4.60;;;3.20;99.90;;;;;;5040426;28;20370;-83
2023/02/25 12:22:11;;;;;;;;;;;3.10;99.90;;;;;;5051922;28;20029;-83
2023/02/25 12:24:42;;;;;;;8.52;4.47;;;3.10;99.90;;;;;;5042896;28;19913;-82
2023/02/25 12:27:27;;;;;;;5.00;4.13;;;3.10;99.90;;;;;;5026844;28;20036;-81
2023/02/25 12:30:20;;;;;;;6.90;4.95;;;3.10;99.90;;;;;;5009841;28;20022;-84
2023/02/25 12:32:46;;;;;;;11.45;5.57;;;3.20;99.90;;;;;;5027499;28;20026;-84
2023/02/25 12:35:34;;;;;;;6.65;5.32;;;3.20;99.90;;;;;;5017477;28;20033;-84
2023/02/25 12:38:03;;;;;;;10.70;6.18;;;3.20;99.90;;;;;;5009009;28;20112;-83
2023/02/25 12:40:35;;;;;;;8.32;5.78;;;3.30;99.90;;;;;;5034159;28;20033;-83
2023/02/25 12:43:39;;;;;;;12.90;6.28;;;3.30;99.90;;;;;;5024463;28;20021;-84
2023/02/25 12:46:17;;;;;;;9.48;5.63;;;3.30;99.90;;;;;;5013092;28;20034;-82
2023/02/25 12:49:01;;;;;;;6.15;4.38;;;3.30;99.90;;;;;;5037995;28;20022;-85
2023/02/25 12:51:31;;;;;;;5.65;4.43;;;3.30;99.90;;;;;;5032814;28;20095;-86
2023/02/25 12:54:33;;;;;;;7.13;5.13;;;3.30;99.90;;;;;;5018704;28;20038;-85
2023/02/25 12:57:20;;;;;;;5.50;3.85;;;3.30;99.90;;;;;;5026958;28;20357;-84
2023/02/25 12:59:52;;;;;;;;;;;3.20;99.90;;;;;;5019848;28;20475;-85
2023/02/25 13:02:39;;;;;;;7.88;5.82;;;3.20;99.90;;;;;;5016607;28;19905;-84
2023/02/25 13:05:28;;;;;;;7.88;5.45;;;3.20;99.90;;;;;;5030244;28;20164;-84